• Join FlightAware (Why Join?)
  • Login
  • US Flag 
11:37AM EDT


 

Airport Tracker/Info


-or-


 

Live Flight TrackerFlight Track Log ✈ SWA2624 ✈ 13-Apr-2014 ✈ KDEN - KCAK

Flight Track Log - Related Links

Times and Time Zones

All times are in EDT time to prevent confusion due to time zone crossing. See the SWA2624 flight status page for this flight to view local times or setup timezone preferences in your user account.

Time Position Orientation Groundspeed Altitude Reporting Facility
EDT Latitude Longitude Course Direction KTS MPH feet Rate Location/Type
12:02PM 39.8833 -104.5667 90° East 181 208 7,400  Level Denver TRACON
12:03PM 39.8833 -104.4833 90° East 245 282 9,100 1,440 Climbing Denver TRACON
12:04PM 39.8744 -104.4189 100° East 268 308 9,900 600 Climbing Denver Center
12:05PM 39.8736 -104.3075 91° East 310 357 10,200 1,560 Climbing Denver Center
12:06PM 39.8728 -104.1897 90° East 321 369 13,200 2,880 Climbing Denver Center
12:07PM 39.8719 -104.0525 90° East 347 399 16,200 3,000 Climbing Denver Center
12:08PM 39.8833 -103.6842 90° East  Level FlightAware Approximate
12:08PM 39.8706 -103.9139 91° East 379 436 19,500  Level Denver Center
12:09PM 39.8803 -103.7650 85° East 386 444 22,600 2,820 Climbing Denver Center
12:10PM 39.8972 -103.6178 81° East 408 470 25,400 2,460 Climbing Denver Center
12:11PM 39.9136 -103.4672 82° East 416 479 27,800 2,040 Climbing Denver Center
12:12PM 39.9278 -103.3456 81° East 422 486 29,700 2,040 Climbing Denver Center
12:13PM 39.9492 -103.1572 82° East 433 498 32,100 2,220 Climbing Denver Center
12:14PM 39.9661 -103.0003 82° East 439 505 34,400 1,380 Climbing Denver Center
12:15PM 39.9875 -102.8114 82° East 443 510 35,000 240 Climbing Denver Center
12:16PM 40.0022 -102.6628 83° East 455 524 35,000  Level Denver Center
12:17PM 40.0217 -102.4808 82° East 454 522 35,000  Level Denver Center
12:18PM 40.0342 -102.3506 83° East 454 522 35,000 360 Level Denver Center
12:19PM 40.0558 -102.1400 82° East 456 525 35,800 900 Climbing Denver Center
12:20PM 40.0739 -101.9811 82° East 462 532 36,900 1,200 Climbing Denver Center
12:21PM 40.0942 -101.7931 82° East 465 535 38,300 1,140 Climbing Denver Center
12:22PM 40.1097 -101.6283 83° East 472 543 39,300 780 Climbing Denver Center
12:23PM 40.1278 -101.4314 83° East 486 559 40,000 780 Climbing Denver Center
12:24PM 40.1433 -101.2614 83° East 491 565 41,000 480 Climbing Denver Center
12:25PM 40.1611 -101.0650 83° East 491 565 41,000  Level Denver Center
12:26PM 40.1761 -100.8986 83° East 489 563 41,000  Level Denver Center
12:27PM 40.1936 -100.7033 83° East 487 560 41,000  Level Denver Center
12:28PM 40.2156 -100.5361 80° East 488 562 41,000  Level Denver Center
12:29PM 40.2561 -100.3417 75° East 497 572 41,000  Level Denver Center
12:30PM 40.2892 -100.1739 75° East 498 573 41,000  Level Denver Center
12:31PM 40.3233 -100.0058 75° East 499 574 41,000  Level Denver Center
12:33PM 40.3606 -99.8167 75° East 499 574 41,000  Level Denver Center
12:34PM 40.3950 -99.6403 76° East 499 574 41,000  Level Denver Center
12:35PM 40.4297 -99.4608 76° East 504 580 41,000  Level Denver Center
12:36PM 40.4647 -99.2831 75° East 505 581 41,000  Level Denver Center
12:37PM 40.5072 -99.0681 75° East 506 582 41,000  Level Denver Center
12:38PM 40.5417 -98.8903 76° East 506 582 41,000  Level Denver Center
12:39PM 40.5733 -98.7167 76° East 497 572 41,000  Level Denver Center
12:40PM 40.6050 -98.5456 76° East 489 563 41,000  Level Denver Center
12:41PM 40.6500 -98.3006 76° East 493 567 41,000  Level Minneapolis Center
12:42PM 40.6811 -98.1244 77° East 494 568 41,000  Level Minneapolis Center
12:43PM 40.7142 -97.9472 76° East 497 572 41,000  Level Minneapolis Center
12:44PM 40.7444 -97.7711 77° East 497 572 41,000  Level Minneapolis Center
12:45PM 40.7767 -97.5958 76° East 496 571 41,000  Level Minneapolis Center
12:46PM 40.7931 -97.4192 83° East 489 563 41,000  Level Minneapolis Center
12:47PM 40.8064 -97.2267 85° East 487 560 41,000  Level Minneapolis Center
12:48PM 40.8211 -97.0500 84° East 487 560 41,000  Level Minneapolis Center
12:49PM 40.8350 -96.8719 84° East 487 560 41,000  Level Minneapolis Center
12:50PM 40.8347 -96.6950 90° East 487 560 41,000  Level Minneapolis Center
12:51PM 40.8225 -96.5208 95° East 483 556 41,000  Level Minneapolis Center
12:52PM 40.8217 -96.3111 90° East 482 555 41,000  Level Minneapolis Center
12:53PM 40.8386 -96.1389 83° East 480 552 41,000  Level Minneapolis Center
12:54PM 40.8556 -95.9669 83° East 479 551 41,000  Level Minneapolis Center
12:55PM 40.8725 -95.7967 82° East 476 548 41,000  Level Minneapolis Center
12:56PM 40.8906 -95.6286 82° East 470 541 41,000  Level Minneapolis Center
12:57PM 40.9081 -95.4581 82° East 470 541 41,000  Level Minneapolis Center
12:58PM 40.9258 -95.2867 82° East 470 541 41,000  Level Minneapolis Center
01:00PM 40.9450 -95.0825 83° East 470 541 41,000  Level Minneapolis Center
01:01PM 40.9611 -94.9106 83° East 470 541 41,000  Level Minneapolis Center
01:02PM 40.9794 -94.7394 82° East 471 542 41,000  Level Minneapolis Center
01:03PM 41.0033 -94.5558 80° East 471 542 41,000  Level Minneapolis Center
01:04PM 41.0467 -94.3936 70° East 471 542 41,000  Level Minneapolis Center
01:05PM 41.0914 -94.2297 70° East 471 542 41,000  Level Minneapolis Center
01:06PM 41.1392 -94.0692 68° East 471 542 41,000  Level Minneapolis Center
01:07PM 41.1947 -93.9128 65° Northeast 471 542 41,000  Level Minneapolis Center
01:08PM 41.2489 -93.7525 66° East 472 543 41,000  Level Minneapolis Center
01:09PM 41.3064 -93.5922 64° Northeast 477 549 41,000  Level Minneapolis Center
01:10PM 41.3742 -93.4022 65° Northeast 477 549 41,000  Level Minneapolis Center
01:11PM 41.4333 -93.2431 64° Northeast 478 550 41,000  Level Minneapolis Center
01:12PM 41.4858 -93.0794 67° East 478 550 41,000  Level Minneapolis Center
01:13PM 41.5264 -92.9106 72° East 478 550 41,000  Level Minneapolis Center
01:14PM 41.5531 -92.7372 78° East 478 550 41,000  Level Minneapolis Center
01:15PM 41.5542 -92.5628 89° East 476 548 41,000  Level Minneapolis Center
01:15PM 41.5503 -92.4411 92° East 478 550 41,000  Level Chicago Center
01:16PM 41.5447 -92.2653 92° East 478 550 41,000  Level Chicago Center
01:17PM 41.5400 -92.0897 92° East 479 551 41,000  Level Chicago Center
01:18PM 41.5347 -91.9106 92° East 483 556 41,000  Level Chicago Center
01:20PM 41.5286 -91.7294 93° East 488 562 41,000  Level Chicago Center
01:21PM 41.5214 -91.5075 92° East 498 573 41,000  Level Chicago Center
01:22PM 41.5150 -91.3219 93° East 502 578 41,000  Level Chicago Center
01:23PM 41.5083 -91.1403 93° East 502 578 41,000  Level Chicago Center
01:24PM 41.5011 -90.9533 93° East 503 579 41,000  Level Chicago Center
01:25PM 41.4942 -90.7669 93° East 503 579 41,000  Level Chicago Center
01:26PM 41.4856 -90.5819 93° East 499 574 41,000  Level Chicago Center
01:27PM 41.4769 -90.3961 93° East 499 574 41,000  Level Chicago Center
01:28PM 41.4686 -90.1719 93° East 501 577 41,000  Level Chicago Center
01:29PM 41.4608 -89.9856 93° East 501 577 41,000  Level Chicago Center
01:30PM 41.4517 -89.7989 94° East 501 577 41,000  Level Chicago Center
01:31PM 41.4422 -89.6114 94° East 502 578 41,000  Level Chicago Center
01:32PM 41.4319 -89.4200 94° East 511 588 41,000  Level Chicago Center
01:33PM 41.4225 -89.2272 94° East 519 597 41,000  Level Chicago Center
01:34PM 41.4103 -89.0217 94° East 516 594 41,000  Level Chicago Center
01:35PM 41.3994 -88.8367 94° East 508 585 41,000  Level Chicago Center
01:36PM 41.3894 -88.6539 94° East 502 578 41,000  Level Chicago Center
01:37PM 41.3789 -88.4714 94° East 499 574 41,000  Level Chicago Center
01:38PM 41.3669 -88.2914 95° East 496 571 41,000  Level Chicago Center
01:39PM 41.3550 -88.0847 94° East 493 567 41,000  Level Chicago Center
01:40PM 41.3411 -87.9111 96° East 486 559 41,000 -540 Level Chicago Center
01:41PM 41.3303 -87.7344 95° East 482 555 39,900 -1,020 Descending Chicago Center
01:42PM 41.3189 -87.5492 95° East 501 577 39,000 -960 Descending Chicago Center
01:43PM 41.3058 -87.3628 95° East 508 585 38,000 -1,020 Descending Chicago Center
01:44PM 41.2897 -87.1411 95° East 502 578 37,000 -540 Descending Chicago Center
01:45PM 41.2753 -86.9567 96° East 503 579 37,000 -300 Level Chicago Center
01:46PM 41.2628 -86.7711 95° East 503 579 36,500 -780 Descending Chicago Center
01:47PM 41.2469 -86.5733 96° East 504 580 35,500 -960 Descending Chicago Center
01:48PM 41.2317 -86.3858 96° East 510 587 34,600 -960 Descending Chicago Center
01:49PM 41.2178 -86.1989 96° East 511 588 33,600 -1,020 Descending Chicago Center
01:50PM 41.2028 -86.0136 96° East 510 587 32,600 -1,020 Descending Chicago Center
01:51PM 41.1864 -85.8281 97° East 509 586 31,600 -960 Descending Chicago Center
01:52PM 41.1711 -85.6436 96° East 509 586 30,700 -1,080 Descending Chicago Center
01:53PM 41.1519 -85.4272 97° East 502 578 29,500 -840 Descending Chicago Center
01:54PM 41.1358 -85.2500 97° East 489 563 29,000 -300 Descending Chicago Center
01:55PM 41.1208 -85.0792 97° East 480 552 29,000  Level Chicago Center
01:56PM 41.1053 -84.9075 97° East 477 549 29,000  Level Chicago Center
01:58PM 41.0897 -84.7372 97° East 471 542 29,000 -360 Level Chicago Center
01:58PM 41.0739 -84.5661 97° East 474 545 28,400 -840 Descending Cleveland Center
01:59PM 41.0575 -84.3986 97° East 467 537 27,400 -720 Descending Cleveland Center
02:00PM 41.0419 -84.2297 97° East 465 535 27,000 -240 Descending Cleveland Center
02:02PM 41.0247 -84.0628 98° East 461 531 27,000  Level Cleveland Center
02:03PM 41.0039 -83.8600 98° East 476 548 27,000  Level Cleveland Center
02:04PM 40.9878 -83.6922 97° East 476 548 27,000 -360 Level Cleveland Center
02:05PM 40.9700 -83.5186 98° East 476 548 26,300 -840 Descending Cleveland Center
02:06PM 40.9517 -83.3464 98° East 476 548 25,400 -1,020 Descending Cleveland Center
02:07PM 40.9311 -83.1592 98° East 478 550 24,300 -1,080 Descending Cleveland Center
02:08PM 40.9139 -82.9906 98° East 464 534 23,200 -1,020 Descending Cleveland Center
02:09PM 40.8939 -82.8197 99° East 467 537 22,300 -1,200 Descending Cleveland Center
02:10PM 40.8719 -82.6222 98° East 467 537 20,800 -2,160 Descending Cleveland Center
02:11PM 40.8422 -82.4653 104° East 440 506 17,900 -2,760 Descending Cleveland Center
02:12PM 40.8103 -82.3139 106° East 431 496 15,100 -2,700 Descending Cleveland Center
02:13PM 40.7781 -82.1681 106° East 417 480 12,400 -2,160 Descending Cleveland Center
02:14PM 40.7481 -82.0297 106° East 400 460 10,700 -1,200 Descending Cleveland Center
02:15PM 40.7222 -81.9086 106° East 350 403 10,000 -1,020 Descending Cleveland Center
02:16PM 40.7122 -81.7767 96° East 329 379 8,600 -1,380 Descending Cleveland Center
02:17PM 40.7444 -81.6672 69° East 321 369 7,200 -1,500 Descending Cleveland Center
02:18PM 40.8211 -81.6128 28° Northeast 314 361 5,600 -1,080 Descending Cleveland Center
02:19PM 40.8972 -81.5689 24° Northeast 304 350 5,000 -600 Descending Cleveland Center
02:20PM 40.9631 -81.5317 23° Northeast 270 311 4,400 -1,020 Descending Cleveland Center
02:21PM 40.9906 -81.4642 62° Northeast 224 258 3,000 -1,140 Descending Cleveland Center
02:22PM 40.9656 -81.4381 142° Southeast 157 181 2,100 -840 Descending Cleveland Center
02:23PM 40.9317 -81.4400 182° South 130 150 1,300 -780 Descending Cleveland Center